sensor_id;sensor_type;location;lat;lon;timestamp;pressure;altitude;pressure_sealevel;temperature;humidity
14204;BME280;7185;51.854;6.622;2023-02-02T00:00:15;101724.78;;;6.81;100.00
14204;BME280;7185;51.854;6.622;2023-02-02T00:02:47;101725.56;;;6.76;100.00
14204;BME280;7185;51.854;6.622;2023-02-02T00:05:20;101725.56;;;6.76;100.00
14204;BME280;7185;51.854;6.622;2023-02-02T00:07:57;101725.53;;;6.73;100.00
14204;BME280;7185;51.854;6.622;2023-02-02T00:10:29;101738.59;;;6.74;100.00
14204;BME280;7185;51.854;6.622;2023-02-02T00:13:01;101725.53;;;6.73;100.00
14204;BME280;7185;51.854;6.622;2023-02-02T00:15:33;101728.94;;;6.70;100.00
14204;BME280;7185;51.854;6.622;2023-02-02T00:18:05;101720.28;;;6.71;100.00
14204;BME280;7185;51.854;6.622;2023-02-02T00:20:37;101721.09;;;6.67;100.00
14204;BME280;7185;51.854;6.622;2023-02-02T00:23:09;101720.19;;;6.66;100.00
14204;BME280;7185;51.854;6.622;2023-02-02T00:25:41;101726.38;;;6.72;100.00
14204;BME280;7185;51.854;6.622;2023-02-02T00:28:14;101728.94;;;6.70;100.00
14204;BME280;7185;51.854;6.622;2023-02-02T00:30:48;101724.66;;;6.74;100.00
14204;BME280;7185;51.854;6.622;2023-02-02T00:33:20;101717.81;;;6.79;100.00
14204;BME280;7185;51.854;6.622;2023-02-02T00:35:51;101724.78;;;6.80;100.00
14204;BME280;7185;51.854;6.622;2023-02-02T00:38:23;101730.09;;;6.86;100.00
14204;BME280;7185;51.854;6.622;2023-02-02T00:40:55;101727.47;;;6.86;100.00
14204;BME280;7185;51.854;6.622;2023-02-02T00:43:26;101730.13;;;6.89;100.00
14204;BME280;7185;51.854;6.622;2023-02-02T00:45:59;101715.56;;;7.04;100.00
14204;BME280;7185;51.854;6.622;2023-02-02T00:48:30;101711.31;;;7.12;100.00
14204;BME280;7185;51.854;6.622;2023-02-02T00:51:02;101718.25;;;7.10;100.00
14204;BME280;7185;51.854;6.622;2023-02-02T00:53:34;101711.25;;;7.09;100.00
14204;BME280;7185;51.854;6.622;2023-02-02T00:56:05;101719.22;;;7.18;100.00
14204;BME280;7185;51.854;6.622;2023-02-02T00:58:37;101727.03;;;7.15;100.00
14204;BME280;7185;51.854;6.622;2023-02-02T01:01:15;101725.22;;;7.11;100.00
14204;BME280;7185;51.854;6.622;2023-02-02T01:03:47;101716.59;;;7.15;100.00
14204;BME280;7185;51.854;6.622;2023-02-02T01:06:21;101731.50;;;7.24;100.00
14204;BME280;7185;51.854;6.622;2023-02-02T01:08:52;101727.09;;;7.21;100.00
14204;BME280;7185;51.854;6.622;2023-02-02T01:11:24;101729.78;;;7.26;100.00
14204;BME280;7185;51.854;6.622;2023-02-02T01:13:55;101728.19;;;7.37;100.00
14204;BME280;7185;51.854;6.622;2023-02-02T01:16:29;101721.97;;;7.27;100.00
14204;BME280;7185;51.854;6.622;2023-02-02T01:19:01;101718.53;;;7.31;100.00
14204;BME280;7185;51.854;6.622;2023-02-02T01:21:33;101726.56;;;7.48;100.00
14204;BME280;7185;51.854;6.622;2023-02-02T01:24:05;101723.03;;;7.42;100.00
14204;BME280;7185;51.854;6.622;2023-02-02T01:26:36;101723.06;;;7.45;100.00
14204;BME280;7185;51.854;6.622;2023-02-02T01:29:08;101729.03;;;7.38;100.00
14204;BME280;7185;51.854;6.622;2023-02-02T01:31:41;101720.28;;;7.32;100.00
14204;BME280;7185;51.854;6.622;2023-02-02T01:34:14;101732.56;;;7.40;100.00
14204;BME280;7185;51.854;6.622;2023-02-02T01:36:45;101729.13;;;7.44;100.00
14204;BME280;7185;51.854;6.622;2023-02-02T01:39:17;101732.50;;;7.37;100.00
14204;BME280;7185;51.854;6.622;2023-02-02T01:41:49;101735.31;;;7.49;100.00
14204;BME280;7185;51.854;6.622;2023-02-02T01:47:32;101736.31;;;7.60;100.00
14204;BME280;7185;51.854;6.622;2023-02-02T01:50:07;101735.53;;;7.68;100.00
14204;BME280;7185;51.854;6.622;2023-02-02T01:52:42;101734.59;;;7.62;100.00
14204;BME280;7185;51.854;6.622;2023-02-02T01:55:20;101736.19;;;7.51;100.00
14204;BME280;7185;51.854;6.622;2023-02-02T01:57:55;101741.41;;;7.51;100.00
14204;BME280;7185;51.854;6.622;2023-02-02T02:00:28;101739.66;;;7.50;100.00
14204;BME280;7185;51.854;6.622;2023-02-02T02:03:05;101739.03;;;7.68;100.00
14204;BME280;7185;51.854;6.622;2023-02-02T02:05:40;101740.72;;;7.64;100.00
14204;BME280;7185;51.854;6.622;2023-02-02T02:08:17;101743.34;;;7.64;100.00
14204;BME280;7185;51.854;6.622;2023-02-02T02:10:49;101735.38;;;7.57;100.00
14204;BME280;7185;51.854;6.622;2023-02-02T02:13:23;101730.28;;;7.64;100.00
14204;BME280;7185;51.854;6.622;2023-02-02T02:16:23;101729.38;;;7.62;100.00
14204;BME280;7185;51.854;6.622;2023-02-02T02:19:06;101726.88;;;7.72;100.00
14204;BME280;7185;51.854;6.622;2023-02-02T02:21:52;101729.44;;;7.69;100.00
14204;BME280;7185;51.854;6.622;2023-02-02T02:25:09;101724.09;;;7.56;100.00
14204;BME280;7185;51.854;6.622;2023-02-02T02:28:27;101725.13;;;7.71;100.00
14204;BME280;7185;51.854;6.622;2023-02-02T02:31:24;101724.28;;;7.75;100.00
14204;BME280;7185;51.854;6.622;2023-02-02T02:34:07;101725.97;;;7.70;100.00
14204;BME280;7185;51.854;6.622;2023-02-02T02:36:46;101719.84;;;7.64;100.00
14204;BME280;7185;51.854;6.622;2023-02-02T02:39:23;101727.63;;;7.61;100.00
14204;BME280;7185;51.854;6.622;2023-02-02T02:41:59;101724.19;;;7.65;100.00
14204;BME280;7185;51.854;6.622;2023-02-02T02:44:35;101719.00;;;7.69;100.00
14204;BME280;7185;51.854;6.622;2023-02-02T02:47:07;101724.97;;;7.58;100.00
14204;BME280;7185;51.854;6.622;2023-02-02T02:49:44;101728.47;;;7.60;100.00
14204;BME280;7185;51.854;6.622;2023-02-02T02:52:16;101729.31;;;7.56;100.00
14204;BME280;7185;51.854;6.622;2023-02-02T02:54:49;101727.63;;;7.61;100.00
14204;BME280;7185;51.854;6.622;2023-02-02T02:57:41;101727.75;;;7.74;100.00
14204;BME280;7185;51.854;6.622;2023-02-02T03:00:31;101721.56;;;7.64;100.00
14204;BME280;7185;51.854;6.622;2023-02-02T03:03:13;101734.34;;;7.44;100.00
14204;BME280;7185;51.854;6.622;2023-02-02T03:05:55;101719.84;;;7.66;100.00
14204;BME280;7185;51.854;6.622;2023-02-02T03:08:33;101723.38;;;7.71;100.00
14204;BME280;7185;51.854;6.622;2023-02-02T03:11:09;101724.94;;;7.55;100.00
14204;BME280;7185;51.854;6.622;2023-02-02T03:13:42;101723.19;;;7.56;100.00
14204;BME280;7185;51.854;6.622;2023-02-02T03:16:15;101723.19;;;7.54;100.00
14204;BME280;7185;51.854;6.622;2023-02-02T03:18:47;101724.03;;;7.52;100.00
14204;BME280;7185;51.854;6.622;2023-02-02T03:21:20;101724.00;;;7.50;100.00
14204;BME280;7185;51.854;6.622;2023-02-02T03:23:51;101715.28;;;7.48;100.00
14204;BME280;7185;51.854;6.622;2023-02-02T03:26:24;101719.53;;;7.40;100.00
14204;BME280;7185;51.854;6.622;2023-02-02T03:28:56;101727.28;;;7.37;100.00
14204;BME280;7185;51.854;6.622;2023-02-02T03:31:28;101722.19;;;7.43;100.00
14204;BME280;7185;51.854;6.622;2023-02-02T03:34:00;101723.91;;;7.44;100.00
14204;BME280;7185;51.854;6.622;2023-02-02T03:36:33;101732.56;;;7.40;100.00
14204;BME280;7185;51.854;6.622;2023-02-02T03:39:04;101734.19;;;7.31;100.00
14204;BME280;7185;51.854;6.622;2023-02-02T03:41:36;101732.50;;;7.35;100.00
14204;BME280;7185;51.854;6.622;2023-02-02T03:44:07;101737.63;;;7.27;100.00
14204;BME280;7185;51.854;6.622;2023-02-02T03:46:39;101736.03;;;7.39;100.00
14204;BME280;7185;51.854;6.622;2023-02-02T03:49:10;101738.63;;;7.39;100.00
14204;BME280;7185;51.854;6.622;2023-02-02T03:51:49;101736.03;;;7.39;100.00
14204;BME280;7185;51.854;6.622;2023-02-02T03:54:21;101731.72;;;7.42;100.00
14204;BME280;7185;51.854;6.622;2023-02-02T03:56:52;101738.66;;;7.40;100.00
14204;BME280;7185;51.854;6.622;2023-02-02T03:59:24;101740.47;;;7.44;100.00
14204;BME280;7185;51.854;6.622;2023-02-02T04:01:56;101735.19;;;7.41;100.00
14204;BME280;7185;51.854;6.622;2023-02-02T04:04:27;101742.16;;;7.41;100.00
14204;BME280;7185;51.854;6.622;2023-02-02T04:07:00;101743.00;;;7.40;100.00
14204;BME280;7185;51.854;6.622;2023-02-02T04:09:34;101741.31;;;7.45;100.00
14204;BME280;7185;51.854;6.622;2023-02-02T04:12:06;101739.56;;;7.44;100.00
14204;BME280;7185;51.854;6.622;2023-02-02T04:14:40;101737.84;;;7.43;100.00
14204;BME280;7185;51.854;6.622;2023-02-02T04:17:12;101734.19;;;7.33;100.00
14204;BME280;7185;51.854;6.622;2023-02-02T04:19:44;101744.69;;;7.38;100.00
14204;BME280;7185;51.854;6.622;2023-02-02T04:22:17;101728.13;;;7.34;100.00
14204;BME280;7185;51.854;6.622;2023-02-02T04:24:48;101734.31;;;7.41;100.00
14204;BME280;7185;51.854;6.622;2023-02-02T04:27:20;101729.91;;;7.37;100.00
14204;BME280;7185;51.854;6.622;2023-02-02T04:29:52;101735.13;;;7.37;100.00
14204;BME280;7185;51.854;6.622;2023-02-02T04:32:23;101730.72;;;7.32;100.00
14204;BME280;7185;51.854;6.622;2023-02-02T04:34:55;101720.44;;;7.45;100.00
14204;BME280;7185;51.854;6.622;2023-02-02T04:37:31;101721.28;;;7.42;100.00
14204;BME280;7185;51.854;6.622;2023-02-02T04:40:03;101726.41;;;7.34;100.00
14204;BME280;7185;51.854;6.622;2023-02-02T04:42:35;101720.28;;;7.32;100.00
14204;BME280;7185;51.854;6.622;2023-02-02T04:45:07;101728.97;;;7.30;100.00
14204;BME280;7185;51.854;6.622;2023-02-02T04:47:38;101733.47;;;7.43;100.00
14204;BME280;7185;51.854;6.622;2023-02-02T04:50:10;101730.94;;;7.48;100.00
14204;BME280;7185;51.854;6.622;2023-02-02T04:52:43;101729.88;;;7.35;100.00
14204;BME280;7185;51.854;6.622;2023-02-02T04:55:15;101724.00;;;7.50;100.00
14204;BME280;7185;51.854;6.622;2023-02-02T04:57:47;101734.47;;;7.53;100.00
14204;BME280;7185;51.854;6.622;2023-02-02T05:00:19;101743.16;;;7.52;100.00
14204;BME280;7185;51.854;6.622;2023-02-02T05:02:50;101731.06;;;7.57;100.00
14204;BME280;7185;51.854;6.622;2023-02-02T05:05:22;101728.47;;;7.62;100.00
14204;BME280;7185;51.854;6.622;2023-02-02T05:07:55;101724.88;;;7.49;100.00
14204;BME280;7185;51.854;6.622;2023-02-02T05:10:29;101730.94;;;7.49;100.00
14204;BME280;7185;51.854;6.622;2023-02-02T05:13:01;101729.31;;;7.59;100.00
14204;BME280;7185;51.854;6.622;2023-02-02T05:15:33;101730.16;;;7.57;100.00
14204;BME280;7185;51.854;6.622;2023-02-02T05:18:04;101731.94;;;7.59;100.00
14204;BME280;7185;51.854;6.622;2023-02-02T05:20:36;101722.53;;;7.72;100.00
14204;BME280;7185;51.854;6.622;2023-02-02T05:23:12;101717.25;;;7.68;100.00
14204;BME280;7185;51.854;6.622;2023-02-02T05:25:44;101727.75;;;7.74;100.00
14204;BME280;7185;51.854;6.622;2023-02-02T05:28:16;101728.69;;;7.79;100.00
14204;BME280;7185;51.854;6.622;2023-02-02T05:30:48;101723.38;;;7.73;100.00
14204;BME280;7185;51.854;6.622;2023-02-02T05:33:20;101733.03;;;7.80;100.00
14204;BME280;7185;51.854;6.622;2023-02-02T05:35:51;101737.41;;;7.79;100.00
14204;BME280;7185;51.854;6.622;2023-02-02T05:38:24;101740.03;;;7.81;100.00
14204;BME280;7185;51.854;6.622;2023-02-02T05:40:56;101740.00;;;7.78;100.00
14204;BME280;7185;51.854;6.622;2023-02-02T05:43:30;101743.59;;;7.89;100.00
14204;BME280;7185;51.854;6.622;2023-02-02T05:46:03;101740.97;;;7.88;100.00
14204;BME280;7185;51.854;6.622;2023-02-02T05:48:34;101747.19;;;7.97;100.00
14204;BME280;7185;51.854;6.622;2023-02-02T05:51:10;101755.06;;;8.02;100.00
14204;BME280;7185;51.854;6.622;2023-02-02T05:53:46;101752.34;;;7.94;100.00
14204;BME280;7185;51.854;6.622;2023-02-02T05:56:18;101755.81;;;7.90;100.00
14204;BME280;7185;51.854;6.622;2023-02-02T05:58:50;101750.59;;;7.90;100.00
14204;BME280;7185;51.854;6.622;2023-02-02T06:01:22;101754.03;;;7.89;100.00
14204;BME280;7185;51.854;6.622;2023-02-02T06:03:53;101752.34;;;7.94;100.00
14204;BME280;7185;51.854;6.622;2023-02-02T06:06:25;101753.31;;;8.04;100.00
14204;BME280;7185;51.854;6.622;2023-02-02T06:08:58;101750.69;;;8.00;100.00
14204;BME280;7185;51.854;6.622;2023-02-02T06:11:30;101754.13;;;7.95;100.00
14204;BME280;7185;51.854;6.622;2023-02-02T06:14:02;101761.16;;;8.03;100.00
14204;BME280;7185;51.854;6.622;2023-02-02T06:16:33;101755.13;;;8.07;100.00
14204;BME280;7185;51.854;6.622;2023-02-02T06:19:05;101756.00;;;8.09;100.00
14204;BME280;7185;51.854;6.622;2023-02-02T06:21:37;101756.72;;;7.97;100.00
14204;BME280;7185;51.854;6.622;2023-02-02T06:24:10;101756.81;;;8.03;100.00
14204;BME280;7185;51.854;6.622;2023-02-02T06:26:41;101761.22;;;8.09;100.00
14204;BME280;7185;51.854;6.622;2023-02-02T06:29:13;101759.34;;;7.97;100.00
14204;BME280;7185;51.854;6.622;2023-02-02T06:31:45;101769.78;;;7.94;100.00
14204;BME280;7185;51.854;6.622;2023-02-02T06:34:16;101768.13;;;8.04;100.00
14204;BME280;7185;51.854;6.622;2023-02-02T06:36:48;101775.13;;;8.06;100.00
14204;BME280;7185;51.854;6.622;2023-02-02T06:39:23;101780.34;;;8.08;100.00
14204;BME280;7185;51.854;6.622;2023-02-02T06:41:55;101775.19;;;8.11;100.00
14204;BME280;7185;51.854;6.622;2023-02-02T06:44:26;101777.75;;;8.08;100.00
14204;BME280;7185;51.854;6.622;2023-02-02T06:46:58;101788.25;;;8.12;100.00
14204;BME280;7185;51.854;6.622;2023-02-02T06:49:30;101779.44;;;8.04;100.00
14204;BME280;7185;51.854;6.622;2023-02-02T06:52:02;101794.22;;;8.01;100.00
14204;BME280;7185;51.854;6.622;2023-02-02T06:54:35;101782.94;;;8.03;100.00
14204;BME280;7185;51.854;6.622;2023-02-02T06:57:06;101788.31;;;8.17;100.00
14204;BME280;7185;51.854;6.622;2023-02-02T06:59:38;101790.06;;;8.18;100.00
14204;BME280;7185;51.854;6.622;2023-02-02T07:02:11;101789.16;;;8.16;100.00
14204;BME280;7185;51.854;6.622;2023-02-02T07:04:43;101789.09;;;8.10;100.00
14204;BME280;7185;51.854;6.622;2023-02-02T07:07:15;101796.09;;;8.14;100.00
14204;BME280;7185;51.854;6.622;2023-02-02T07:09:48;101803.19;;;8.24;100.00
14204;BME280;7185;51.854;6.622;2023-02-02T07:12:20;101796.94;;;8.10;100.00
14204;BME280;7185;51.854;6.622;2023-02-02T07:14:53;101796.19;;;8.20;100.00
14204;BME280;7185;51.854;6.622;2023-02-02T07:17:25;101795.19;;;8.09;100.00
14204;BME280;7185;51.854;6.622;2023-02-02T07:19:56;101809.13;;;8.11;100.00
14204;BME280;7185;51.854;6.622;2023-02-02T07:22:29;101805.69;;;8.12;100.00
14204;BME280;7185;51.854;6.622;2023-02-02T07:25:02;101804.84;;;8.16;100.00
14204;BME280;7185;51.854;6.622;2023-02-02T07:27:34;101805.75;;;8.18;100.00
14204;BME280;7185;51.854;6.622;2023-02-02T07:30:07;101810.06;;;8.16;100.00
14204;BME280;7185;51.854;6.622;2023-02-02T07:32:39;101806.59;;;8.17;100.00
14204;BME280;7185;51.854;6.622;2023-02-02T07:35:10;101813.50;;;8.12;100.00
14204;BME280;7185;51.854;6.622;2023-02-02T07:37:42;101817.88;;;8.13;100.00
14204;BME280;7185;51.854;6.622;2023-02-02T07:40:15;101812.78;;;8.25;100.00
14204;BME280;7185;51.854;6.622;2023-02-02T07:42:47;101818.00;;;8.24;100.00
14204;BME280;7185;51.854;6.622;2023-02-02T07:45:19;101817.00;;;8.14;100.00
14204;BME280;7185;51.854;6.622;2023-02-02T07:47:54;101822.34;;;8.23;100.00
14204;BME280;7185;51.854;6.622;2023-02-02T07:50:27;101832.66;;;8.14;100.00
14204;BME280;7185;51.854;6.622;2023-02-02T07:52:59;101835.28;;;8.12;100.00
14204;BME280;7185;51.854;6.622;2023-02-02T07:55:33;101837.16;;;8.26;100.00
14204;BME280;7185;51.854;6.622;2023-02-02T07:58:04;101841.47;;;8.21;100.00
14204;BME280;7185;51.854;6.622;2023-02-02T08:00:37;101834.34;;;8.06;100.00
14204;BME280;7185;51.854;6.622;2023-02-02T08:03:09;101846.63;;;8.13;100.00
14204;BME280;7185;51.854;6.622;2023-02-02T08:05:41;101844.94;;;8.18;100.00
14204;BME280;7185;51.854;6.622;2023-02-02T08:08:13;101844.03;;;8.18;100.00
14204;BME280;7185;51.854;6.622;2023-02-02T08:10:48;101849.25;;;8.14;100.00
14204;BME280;7185;51.854;6.622;2023-02-02T08:13:20;101851.00;;;8.16;100.00
14204;BME280;7185;51.854;6.622;2023-02-02T08:15:51;101856.28;;;8.23;100.00
14204;BME280;7185;51.854;6.622;2023-02-02T08:18:23;101850.09;;;8.12;100.00
14204;BME280;7185;51.854;6.622;2023-02-02T08:20:57;101851.84;;;8.13;100.00
14204;BME280;7185;51.854;6.622;2023-02-02T08:23:29;101855.44;;;8.24;100.00
14204;BME280;7185;51.854;6.622;2023-02-02T08:26:11;101852.09;;;8.38;100.00
14204;BME280;7185;51.854;6.622;2023-02-02T08:28:45;101859.63;;;8.11;100.00
14204;BME280;7185;51.854;6.622;2023-02-02T08:31:18;101862.38;;;8.19;100.00
14204;BME280;7185;51.854;6.622;2023-02-02T08:33:50;101870.06;;;8.10;100.00
14204;BME280;7185;51.854;6.622;2023-02-02T08:36:24;101871.84;;;8.12;100.00
14204;BME280;7185;51.854;6.622;2023-02-02T08:38:59;101875.38;;;8.16;100.00
14204;BME280;7185;51.854;6.622;2023-02-02T08:41:33;101876.34;;;8.24;100.00
14204;BME280;7185;51.854;6.622;2023-02-02T08:44:06;101879.88;;;8.29;100.00
14204;BME280;7185;51.854;6.622;2023-02-02T08:46:40;101887.72;;;8.29;100.00
14204;BME280;7185;51.854;6.622;2023-02-02T08:49:12;101891.97;;;8.21;100.00
14204;BME280;7185;51.854;6.622;2023-02-02T08:51:45;101891.91;;;8.15;100.00
14204;BME280;7185;51.854;6.622;2023-02-02T08:54:17;101900.91;;;8.39;100.00
14204;BME280;7185;51.854;6.622;2023-02-02T08:56:50;101902.53;;;8.27;100.00
14204;BME280;7185;51.854;6.622;2023-02-02T08:59:21;101904.22;;;8.24;100.00
14204;BME280;7185;51.854;6.622;2023-02-02T09:01:53;101912.09;;;8.28;100.00
14204;BME280;7185;51.854;6.622;2023-02-02T09:04:25;101907.56;;;8.15;100.00
14204;BME280;7185;51.854;6.622;2023-02-02T09:06:56;101913.84;;;8.29;100.00
14204;BME280;7185;51.854;6.622;2023-02-02T09:09:28;101907.91;;;8.40;100.00
14204;BME280;7185;51.854;6.622;2023-02-02T09:12:01;101908.81;;;8.43;100.00
14204;BME280;7185;51.854;6.622;2023-02-02T09:14:33;101910.22;;;8.17;100.00
14204;BME280;7185;51.854;6.622;2023-02-02T09:17:04;101918.34;;;8.38;100.00
14204;BME280;7185;51.854;6.622;2023-02-02T09:19:36;101912.25;;;8.41;100.00
14204;BME280;7185;51.854;6.622;2023-02-02T09:22:08;101919.91;;;8.25;100.00
14204;BME280;7185;51.854;6.622;2023-02-02T09:24:40;101929.66;;;8.39;100.00
14204;BME280;7185;51.854;6.622;2023-02-02T09:27:13;101935.53;;;8.22;100.00
14204;BME280;7185;51.854;6.622;2023-02-02T09:29:44;101929.59;;;8.34;100.00
14204;BME280;7185;51.854;6.622;2023-02-02T09:32:16;101933.78;;;8.21;100.00
14204;BME280;7185;51.854;6.622;2023-02-02T09:34:47;101948.75;;;8.33;100.00
14204;BME280;7185;51.854;6.622;2023-02-02T09:37:19;101951.47;;;8.41;100.00
14204;BME280;7185;51.854;6.622;2023-02-02T09:39:51;101958.28;;;8.29;100.00
14204;BME280;7185;51.854;6.622;2023-02-02T09:42:33;101963.63;;;8.37;100.00
14204;BME280;7185;51.854;6.622;2023-02-02T09:45:17;101960.25;;;8.46;100.00
14204;BME280;7185;51.854;6.622;2023-02-02T09:47:53;101974.25;;;8.48;100.00
14204;BME280;7185;51.854;6.622;2023-02-02T09:50:42;101974.16;;;8.45;100.00
14204;BME280;7185;51.854;6.622;2023-02-02T09:53:22;101979.38;;;8.45;100.00
14204;BME280;7185;51.854;6.622;2023-02-02T09:55:57;101982.09;;;8.50;100.00
14204;BME280;7185;51.854;6.622;2023-02-02T09:58:33;101989.94;;;8.48;100.00
14204;BME280;7185;51.854;6.622;2023-02-02T10:01:07;101996.81;;;8.44;100.00
14204;BME280;7185;51.854;6.622;2023-02-02T10:03:48;101983.00;;;8.53;100.00
14204;BME280;7185;51.854;6.622;2023-02-02T10:06:31;101995.06;;;8.42;100.00
14204;BME280;7185;51.854;6.622;2023-02-02T10:09:15;101994.44;;;8.61;100.00
14204;BME280;7185;51.854;6.622;2023-02-02T10:11:59;101998.69;;;8.53;100.00
14204;BME280;7185;51.854;6.622;2023-02-02T10:14:40;101993.41;;;8.47;100.00
14204;BME280;7185;51.854;6.622;2023-02-02T10:17:29;102001.41;;;8.61;100.00
14204;BME280;7185;51.854;6.622;2023-02-02T10:20:21;101998.06;;;8.73;100.00
14204;BME280;7185;51.854;6.622;2023-02-02T10:23:02;102008.44;;;8.65;100.00
14204;BME280;7185;51.854;6.622;2023-02-02T10:25:34;102009.19;;;8.56;100.00
14204;BME280;7185;51.854;6.622;2023-02-02T10:28:17;102008.63;;;8.82;100.00
14204;BME280;7185;51.854;6.622;2023-02-02T10:31:14;102013.03;;;8.86;100.00
14204;BME280;7185;51.854;6.622;2023-02-02T10:33:57;102013.63;;;8.62;100.00
14204;BME280;7185;51.854;6.622;2023-02-02T10:36:43;102015.56;;;8.80;100.00
14204;BME280;7185;51.854;6.622;2023-02-02T10:39:24;102021.66;;;8.77;100.00
14204;BME280;7185;51.854;6.622;2023-02-02T10:42:05;102011.25;;;8.81;100.00
14204;BME280;7185;51.854;6.622;2023-02-02T10:44:47;102019.22;;;8.93;100.00
14204;BME280;7185;51.854;6.622;2023-02-02T10:47:30;102019.09;;;8.84;100.00
14204;BME280;7185;51.854;6.622;2023-02-02T10:50:17;102026.81;;;8.73;100.00
14204;BME280;7185;51.854;6.622;2023-02-02T10:52:53;102029.63;;;8.87;100.00
14204;BME280;7185;51.854;6.622;2023-02-02T10:55:31;102025.31;;;8.90;100.00
14204;BME280;7185;51.854;6.622;2023-02-02T10:58:19;102032.31;;;8.93;100.00
14204;BME280;7185;51.854;6.622;2023-02-02T11:00:56;102027.16;;;9.01;100.00
14204;BME280;7185;51.854;6.622;2023-02-02T11:03:32;102028.00;;;8.97;100.00
14204;BME280;7185;51.854;6.622;2023-02-02T11:06:06;102029.63;;;8.90;100.00
14204;BME280;7185;51.854;6.622;2023-02-02T11:08:56;102032.38;;;8.98;100.00
14204;BME280;7185;51.854;6.622;2023-02-02T11:11:32;102028.00;;;8.97;100.00
14204;BME280;7185;51.854;6.622;2023-02-02T11:14:12;102033.94;;;8.86;100.00
14204;BME280;7185;51.854;6.622;2023-02-02T11:16:59;102025.25;;;8.84;100.00
14204;BME280;7185;51.854;6.622;2023-02-02T11:19:34;102029.69;;;8.91;100.00
14204;BME280;7185;51.854;6.622;2023-02-02T11:22:23;102025.25;;;8.87;100.00
14204;BME280;7185;51.854;6.622;2023-02-02T11:24:56;102024.53;;;9.02;100.00
14204;BME280;7185;51.854;6.622;2023-02-02T11:27:32;102021.00;;;8.97;100.00
14204;BME280;7185;51.854;6.622;2023-02-02T11:30:31;102025.38;;;8.97;100.00
14204;BME280;7185;51.854;6.622;2023-02-02T11:33:24;102016.78;;;9.10;100.00
14204;BME280;7185;51.854;6.622;2023-02-02T11:36:00;102023.78;;;9.14;100.00
14204;BME280;7185;51.854;6.622;2023-02-02T11:38:34;102024.66;;;9.13;100.00
14204;BME280;7185;51.854;6.622;2023-02-02T11:41:07;102030.78;;;9.12;100.00
14204;BME280;7185;51.854;6.622;2023-02-02T11:43:48;102030.72;;;9.09;100.00
14204;BME280;7185;51.854;6.622;2023-02-02T11:46:24;102021.84;;;8.91;100.00
14204;BME280;7185;51.854;6.622;2023-02-02T11:49:00;102029.78;;;9.02;100.00
14204;BME280;7185;51.854;6.622;2023-02-02T11:51:34;102017.47;;;8.93;100.00
14204;BME280;7185;51.854;6.622;2023-02-02T11:54:13;102014.97;;;9.04;100.00
14204;BME280;7185;51.854;6.622;2023-02-02T11:56:48;102025.44;;;9.03;100.00
14204;BME280;7185;51.854;6.622;2023-02-02T11:59:36;102030.56;;;8.93;100.00
14204;BME280;7185;51.854;6.622;2023-02-02T12:02:26;102024.53;;;9.01;100.00
14204;BME280;7185;51.854;6.622;2023-02-02T12:08:10;102033.16;;;8.93;100.00
14204;BME280;7185;51.854;6.622;2023-02-02T12:10:47;102032.19;;;8.82;100.00
14204;BME280;7185;51.854;6.622;2023-02-02T12:13:39;102029.69;;;8.96;100.00
14204;BME280;7185;51.854;6.622;2023-02-02T12:16:22;102042.59;;;8.79;100.00
14204;BME280;7185;51.854;6.622;2023-02-02T12:19:08;102035.59;;;8.78;100.00
14204;BME280;7185;51.854;6.622;2023-02-02T12:21:50;102041.59;;;8.69;100.00
14204;BME280;7185;51.854;6.622;2023-02-02T12:24:30;102043.53;;;8.84;100.00
14204;BME280;7185;51.854;6.622;2023-02-02T12:27:12;102036.56;;;8.85;100.00
14204;BME280;7185;51.854;6.622;2023-02-02T12:30:03;102039.09;;;8.77;100.00
14204;BME280;7185;51.854;6.622;2023-02-02T12:32:55;102026.16;;;8.91;100.00
14204;BME280;7185;51.854;6.622;2023-02-02T12:35:47;102040.03;;;8.84;100.00
14204;BME280;7185;51.854;6.622;2023-02-02T12:38:30;102032.19;;;8.82;100.00
14204;BME280;7185;51.854;6.622;2023-02-02T12:41:20;102034.81;;;8.85;100.00
14204;BME280;7185;51.854;6.622;2023-02-02T12:44:00;102030.56;;;8.93;100.00
14204;BME280;7185;51.854;6.622;2023-02-02T12:46:48;102030.47;;;8.87;100.00
14204;BME280;7185;51.854;6.622;2023-02-02T12:49:49;102024.47;;;8.93;100.00
14204;BME280;7185;51.854;6.622;2023-02-02T12:52:35;102027.22;;;9.07;100.00
14204;BME280;7185;51.854;6.622;2023-02-02T12:55:16;102020.09;;;8.93;100.00
14204;BME280;7185;51.854;6.622;2023-02-02T12:58:01;102017.66;;;9.07;100.00
14204;BME280;7185;51.854;6.622;2023-02-02T13:01:06;102014.00;;;8.93;100.00
14204;BME280;7185;51.854;6.622;2023-02-02T13:03:59;102007.88;;;8.92;100.00
14204;BME280;7185;51.854;6.622;2023-02-02T13:09:32;102014.00;;;8.95;100.00
14204;BME280;7185;51.854;6.622;2023-02-02T13:12:08;102020.13;;;8.97;100.00
14204;BME280;7185;51.854;6.622;2023-02-02T13:14:44;102016.69;;;9.01;100.00
14204;BME280;7185;51.854;6.622;2023-02-02T13:17:20;102013.16;;;8.96;100.00
14204;BME280;7185;51.854;6.622;2023-02-02T13:19:58;102018.25;;;8.86;100.00
14204;BME280;7185;51.854;6.622;2023-02-02T13:22:38;102020.88;;;8.85;100.00
14204;BME280;7185;51.854;6.622;2023-02-02T13:25:17;102024.25;;;8.76;100.00
14204;BME280;7185;51.854;6.622;2023-02-02T13:27:50;102025.25;;;8.84;100.00
14204;BME280;7185;51.854;6.622;2023-02-02T13:30:30;102033.88;;;8.79;100.00
14204;BME280;7185;51.854;6.622;2023-02-02T13:33:09;102029.69;;;8.91;100.00
14204;BME280;7185;51.854;6.622;2023-02-02T13:35:49;102043.50;;;8.81;100.00
14204;BME280;7185;51.854;6.622;2023-02-02T13:38:24;102031.94;;;8.64;100.00
14204;BME280;7185;51.854;6.622;2023-02-02T13:40:58;102041.72;;;8.77;100.00
14204;BME280;7185;51.854;6.622;2023-02-02T13:43:38;102044.19;;;8.68;100.00
14204;BME280;7185;51.854;6.622;2023-02-02T13:46:20;102039.03;;;8.74;100.00
14204;BME280;7185;51.854;6.622;2023-02-02T13:49:05;102038.97;;;8.66;100.00
14204;BME280;7185;51.854;6.622;2023-02-02T13:51:48;102036.28;;;8.61;100.00
14204;BME280;7185;51.854;6.622;2023-02-02T13:57:47;102028.50;;;8.68;100.00